sensor_id;sensor_type;location;lat;lon;timestamp;P1;durP1;ratioP1;P2;durP2;ratioP2
37409;SDS011;23275;48.914;12.566;2023-06-01T00:00:50;6.68;;;2.63;;
37409;SDS011;23275;48.914;12.566;2023-06-01T00:03:15;8.05;;;2.83;;
37409;SDS011;23275;48.914;12.566;2023-06-01T00:05:41;6.57;;;2.63;;
37409;SDS011;23275;48.914;12.566;2023-06-01T00:08:07;6.45;;;3.05;;
37409;SDS011;23275;48.914;12.566;2023-06-01T00:10:32;4.60;;;2.38;;
37409;SDS011;23275;48.914;12.566;2023-06-01T00:12:58;4.78;;;2.50;;
37409;SDS011;23275;48.914;12.566;2023-06-01T00:15:23;6.03;;;2.42;;
37409;SDS011;23275;48.914;12.566;2023-06-01T00:17:49;6.43;;;2.75;;
37409;SDS011;23275;48.914;12.566;2023-06-01T00:20:16;6.97;;;2.80;;
37409;SDS011;23275;48.914;12.566;2023-06-01T00:22:42;8.25;;;3.30;;
37409;SDS011;23275;48.914;12.566;2023-06-01T00:25:09;7.18;;;3.20;;
37409;SDS011;23275;48.914;12.566;2023-06-01T00:27:35;6.65;;;2.95;;
37409;SDS011;23275;48.914;12.566;2023-06-01T00:30:01;6.43;;;2.97;;
37409;SDS011;23275;48.914;12.566;2023-06-01T00:32:27;5.22;;;2.75;;
37409;SDS011;23275;48.914;12.566;2023-06-01T00:34:52;5.10;;;2.40;;
37409;SDS011;23275;48.914;12.566;2023-06-01T00:37:18;4.60;;;2.58;;
37409;SDS011;23275;48.914;12.566;2023-06-01T00:39:43;6.57;;;2.75;;
37409;SDS011;23275;48.914;12.566;2023-06-01T00:42:09;7.13;;;2.80;;
37409;SDS011;23275;48.914;12.566;2023-06-01T00:44:34;4.97;;;2.53;;
37409;SDS011;23275;48.914;12.566;2023-06-01T00:47:00;4.75;;;2.35;;
37409;SDS011;23275;48.914;12.566;2023-06-01T00:49:26;6.93;;;2.67;;
37409;SDS011;23275;48.914;12.566;2023-06-01T00:51:52;5.70;;;2.60;;
37409;SDS011;23275;48.914;12.566;2023-06-01T00:54:18;5.10;;;2.28;;
37409;SDS011;23275;48.914;12.566;2023-06-01T00:56:44;7.18;;;2.92;;
37409;SDS011;23275;48.914;12.566;2023-06-01T00:59:10;5.20;;;2.45;;
37409;SDS011;23275;48.914;12.566;2023-06-01T01:01:37;7.78;;;2.58;;
37409;SDS011;23275;48.914;12.566;2023-06-01T01:04:03;6.15;;;2.40;;
37409;SDS011;23275;48.914;12.566;2023-06-01T01:09:33;9.07;;;3.05;;
37409;SDS011;23275;48.914;12.566;2023-06-01T01:12:20;4.40;;;2.17;;
37409;SDS011;23275;48.914;12.566;2023-06-01T01:17:38;6.22;;;2.70;;
37409;SDS011;23275;48.914;12.566;2023-06-01T01:20:26;7.70;;;2.80;;
37409;SDS011;23275;48.914;12.566;2023-06-01T01:23:02;4.32;;;2.30;;
37409;SDS011;23275;48.914;12.566;2023-06-01T01:28:10;6.97;;;2.85;;
37409;SDS011;23275;48.914;12.566;2023-06-01T01:30:57;7.22;;;2.72;;
37409;SDS011;23275;48.914;12.566;2023-06-01T01:33:25;7.65;;;2.30;;
37409;SDS011;23275;48.914;12.566;2023-06-01T01:35:52;5.80;;;2.42;;
37409;SDS011;23275;48.914;12.566;2023-06-01T01:38:18;6.15;;;2.90;;
37409;SDS011;23275;48.914;12.566;2023-06-01T01:40:44;8.70;;;2.75;;
37409;SDS011;23275;48.914;12.566;2023-06-01T01:43:09;4.57;;;3.00;;
37409;SDS011;23275;48.914;12.566;2023-06-01T01:45:35;5.97;;;3.20;;
37409;SDS011;23275;48.914;12.566;2023-06-01T01:50:32;4.80;;;2.60;;
37409;SDS011;23275;48.914;12.566;2023-06-01T01:53:03;4.45;;;2.10;;
37409;SDS011;23275;48.914;12.566;2023-06-01T01:55:31;5.22;;;2.63;;
37409;SDS011;23275;48.914;12.566;2023-06-01T01:57:59;6.68;;;3.15;;
37409;SDS011;23275;48.914;12.566;2023-06-01T02:00:27;9.25;;;4.03;;
37409;SDS011;23275;48.914;12.566;2023-06-01T02:02:54;6.45;;;3.22;;
37409;SDS011;23275;48.914;12.566;2023-06-01T02:05:19;6.43;;;3.53;;
37409;SDS011;23275;48.914;12.566;2023-06-01T02:07:45;7.30;;;3.38;;
37409;SDS011;23275;48.914;12.566;2023-06-01T02:10:10;6.63;;;3.00;;
37409;SDS011;23275;48.914;12.566;2023-06-01T02:12:36;9.68;;;3.40;;
37409;SDS011;23275;48.914;12.566;2023-06-01T02:15:02;7.22;;;3.08;;
37409;SDS011;23275;48.914;12.566;2023-06-01T02:17:28;8.98;;;3.25;;
37409;SDS011;23275;48.914;12.566;2023-06-01T02:19:54;7.95;;;3.70;;
37409;SDS011;23275;48.914;12.566;2023-06-01T02:22:19;8.85;;;4.05;;
37409;SDS011;23275;48.914;12.566;2023-06-01T02:24:45;7.45;;;3.60;;
37409;SDS011;23275;48.914;12.566;2023-06-01T02:27:11;8.40;;;3.53;;
37409;SDS011;23275;48.914;12.566;2023-06-01T02:29:37;8.30;;;3.58;;
37409;SDS011;23275;48.914;12.566;2023-06-01T02:32:02;7.85;;;3.67;;
37409;SDS011;23275;48.914;12.566;2023-06-01T02:34:28;7.78;;;3.58;;
37409;SDS011;23275;48.914;12.566;2023-06-01T02:36:53;4.95;;;3.00;;
37409;SDS011;23275;48.914;12.566;2023-06-01T02:39:22;5.85;;;3.38;;
37409;SDS011;23275;48.914;12.566;2023-06-01T02:41:48;11.27;;;4.38;;
37409;SDS011;23275;48.914;12.566;2023-06-01T02:44:14;11.00;;;4.50;;
37409;SDS011;23275;48.914;12.566;2023-06-01T02:46:40;7.18;;;4.28;;
37409;SDS011;23275;48.914;12.566;2023-06-01T02:49:05;8.95;;;4.70;;
37409;SDS011;23275;48.914;12.566;2023-06-01T02:51:31;9.25;;;5.10;;
37409;SDS011;23275;48.914;12.566;2023-06-01T02:53:57;9.68;;;4.80;;
37409;SDS011;23275;48.914;12.566;2023-06-01T02:56:23;11.23;;;4.80;;
37409;SDS011;23275;48.914;12.566;2023-06-01T02:58:49;8.25;;;4.05;;
37409;SDS011;23275;48.914;12.566;2023-06-01T03:01:15;7.78;;;4.50;;
37409;SDS011;23275;48.914;12.566;2023-06-01T03:03:41;10.52;;;5.18;;
37409;SDS011;23275;48.914;12.566;2023-06-01T03:06:07;10.35;;;4.60;;
37409;SDS011;23275;48.914;12.566;2023-06-01T03:08:33;9.93;;;4.97;;
37409;SDS011;23275;48.914;12.566;2023-06-01T03:10:59;9.93;;;5.43;;
37409;SDS011;23275;48.914;12.566;2023-06-01T03:13:25;8.45;;;4.53;;
37409;SDS011;23275;48.914;12.566;2023-06-01T03:15:50;8.57;;;5.25;;
37409;SDS011;23275;48.914;12.566;2023-06-01T03:18:16;10.20;;;5.55;;
37409;SDS011;23275;48.914;12.566;2023-06-01T03:20:42;11.25;;;5.40;;
37409;SDS011;23275;48.914;12.566;2023-06-01T03:23:07;10.00;;;5.38;;
37409;SDS011;23275;48.914;12.566;2023-06-01T03:25:33;9.95;;;5.03;;
37409;SDS011;23275;48.914;12.566;2023-06-01T03:27:58;7.88;;;4.70;;
37409;SDS011;23275;48.914;12.566;2023-06-01T03:30:24;8.68;;;5.32;;
37409;SDS011;23275;48.914;12.566;2023-06-01T03:32:50;8.82;;;5.10;;
37409;SDS011;23275;48.914;12.566;2023-06-01T03:35:16;8.77;;;5.68;;
37409;SDS011;23275;48.914;12.566;2023-06-01T03:37:42;8.73;;;5.18;;
37409;SDS011;23275;48.914;12.566;2023-06-01T03:40:09;14.32;;;5.50;;
37409;SDS011;23275;48.914;12.566;2023-06-01T03:42:42;9.55;;;5.18;;
37409;SDS011;23275;48.914;12.566;2023-06-01T03:45:10;8.57;;;5.22;;
37409;SDS011;23275;48.914;12.566;2023-06-01T03:47:36;8.95;;;5.65;;
37409;SDS011;23275;48.914;12.566;2023-06-01T03:50:02;11.50;;;5.65;;
37409;SDS011;23275;48.914;12.566;2023-06-01T03:52:30;7.80;;;5.10;;
37409;SDS011;23275;48.914;12.566;2023-06-01T03:54:56;8.63;;;4.95;;
37409;SDS011;23275;48.914;12.566;2023-06-01T03:57:23;8.90;;;5.13;;
37409;SDS011;23275;48.914;12.566;2023-06-01T03:59:48;12.23;;;5.82;;
37409;SDS011;23275;48.914;12.566;2023-06-01T04:02:15;10.85;;;5.55;;
37409;SDS011;23275;48.914;12.566;2023-06-01T04:04:41;9.50;;;5.05;;
37409;SDS011;23275;48.914;12.566;2023-06-01T04:07:10;8.27;;;5.55;;
37409;SDS011;23275;48.914;12.566;2023-06-01T04:09:42;10.40;;;5.70;;
37409;SDS011;23275;48.914;12.566;2023-06-01T04:12:09;9.23;;;5.82;;
37409;SDS011;23275;48.914;12.566;2023-06-01T04:14:35;16.05;;;8.40;;
37409;SDS011;23275;48.914;12.566;2023-06-01T04:17:01;11.15;;;7.18;;
37409;SDS011;23275;48.914;12.566;2023-06-01T04:19:27;9.77;;;5.80;;
37409;SDS011;23275;48.914;12.566;2023-06-01T04:21:53;9.95;;;5.63;;
37409;SDS011;23275;48.914;12.566;2023-06-01T04:24:19;9.70;;;6.15;;
37409;SDS011;23275;48.914;12.566;2023-06-01T04:26:45;13.02;;;6.13;;
37409;SDS011;23275;48.914;12.566;2023-06-01T04:29:10;11.25;;;5.47;;
37409;SDS011;23275;48.914;12.566;2023-06-01T04:31:37;8.70;;;5.40;;
37409;SDS011;23275;48.914;12.566;2023-06-01T04:34:03;10.80;;;5.53;;
37409;SDS011;23275;48.914;12.566;2023-06-01T04:36:30;9.95;;;5.50;;
37409;SDS011;23275;48.914;12.566;2023-06-01T04:38:58;10.43;;;5.78;;
37409;SDS011;23275;48.914;12.566;2023-06-01T04:41:23;9.13;;;5.80;;
37409;SDS011;23275;48.914;12.566;2023-06-01T04:43:54;9.10;;;5.18;;
37409;SDS011;23275;48.914;12.566;2023-06-01T04:46:23;9.25;;;5.28;;
37409;SDS011;23275;48.914;12.566;2023-06-01T04:48:54;8.30;;;4.88;;
37409;SDS011;23275;48.914;12.566;2023-06-01T04:51:23;8.57;;;5.95;;
37409;SDS011;23275;48.914;12.566;2023-06-01T04:53:50;7.63;;;5.15;;
37409;SDS011;23275;48.914;12.566;2023-06-01T04:56:19;11.23;;;5.07;;
37409;SDS011;23275;48.914;12.566;2023-06-01T04:58:49;9.93;;;4.95;;
37409;SDS011;23275;48.914;12.566;2023-06-01T05:01:21;11.30;;;5.22;;
37409;SDS011;23275;48.914;12.566;2023-06-01T05:03:50;9.65;;;4.75;;
37409;SDS011;23275;48.914;12.566;2023-06-01T05:06:17;9.02;;;4.88;;
37409;SDS011;23275;48.914;12.566;2023-06-01T05:08:44;7.82;;;4.15;;
37409;SDS011;23275;48.914;12.566;2023-06-01T05:11:10;6.13;;;3.80;;
37409;SDS011;23275;48.914;12.566;2023-06-01T05:13:36;7.63;;;4.10;;
37409;SDS011;23275;48.914;12.566;2023-06-01T05:16:03;9.40;;;3.88;;
37409;SDS011;23275;48.914;12.566;2023-06-01T05:18:29;6.63;;;3.72;;
37409;SDS011;23275;48.914;12.566;2023-06-01T05:20:55;8.35;;;3.83;;
37409;SDS011;23275;48.914;12.566;2023-06-01T05:23:20;6.47;;;3.90;;
37409;SDS011;23275;48.914;12.566;2023-06-01T05:25:46;6.63;;;3.95;;
37409;SDS011;23275;48.914;12.566;2023-06-01T05:28:12;7.28;;;3.85;;
37409;SDS011;23275;48.914;12.566;2023-06-01T05:30:37;9.00;;;4.70;;
37409;SDS011;23275;48.914;12.566;2023-06-01T05:33:03;6.55;;;3.38;;
37409;SDS011;23275;48.914;12.566;2023-06-01T05:35:29;7.43;;;3.70;;
37409;SDS011;23275;48.914;12.566;2023-06-01T05:37:54;7.00;;;3.65;;
37409;SDS011;23275;48.914;12.566;2023-06-01T05:40:20;6.50;;;3.40;;
37409;SDS011;23275;48.914;12.566;2023-06-01T05:42:46;7.78;;;3.53;;
37409;SDS011;23275;48.914;12.566;2023-06-01T05:45:11;7.15;;;3.90;;
37409;SDS011;23275;48.914;12.566;2023-06-01T05:47:37;9.32;;;3.15;;
37409;SDS011;23275;48.914;12.566;2023-06-01T05:50:03;6.63;;;3.70;;
37409;SDS011;23275;48.914;12.566;2023-06-01T05:52:29;8.13;;;3.40;;
37409;SDS011;23275;48.914;12.566;2023-06-01T05:54:55;6.03;;;3.35;;
37409;SDS011;23275;48.914;12.566;2023-06-01T05:57:21;8.23;;;3.80;;
37409;SDS011;23275;48.914;12.566;2023-06-01T05:59:46;6.55;;;3.38;;
37409;SDS011;23275;48.914;12.566;2023-06-01T06:02:15;8.15;;;3.65;;
37409;SDS011;23275;48.914;12.566;2023-06-01T06:04:40;6.72;;;3.55;;
37409;SDS011;23275;48.914;12.566;2023-06-01T06:07:06;5.90;;;3.08;;
37409;SDS011;23275;48.914;12.566;2023-06-01T06:09:32;6.13;;;3.20;;
37409;SDS011;23275;48.914;12.566;2023-06-01T06:11:58;10.32;;;3.28;;
37409;SDS011;23275;48.914;12.566;2023-06-01T06:14:24;6.72;;;3.47;;
37409;SDS011;23275;48.914;12.566;2023-06-01T06:16:50;6.10;;;3.80;;
37409;SDS011;23275;48.914;12.566;2023-06-01T06:19:15;10.80;;;4.07;;
37409;SDS011;23275;48.914;12.566;2023-06-01T06:21:41;9.18;;;3.83;;
37409;SDS011;23275;48.914;12.566;2023-06-01T06:24:07;7.57;;;3.63;;
37409;SDS011;23275;48.914;12.566;2023-06-01T06:26:32;6.32;;;3.22;;
37409;SDS011;23275;48.914;12.566;2023-06-01T06:28:58;11.70;;;3.17;;
37409;SDS011;23275;48.914;12.566;2023-06-01T06:31:24;7.40;;;2.80;;
37409;SDS011;23275;48.914;12.566;2023-06-01T06:33:49;9.68;;;3.50;;
37409;SDS011;23275;48.914;12.566;2023-06-01T06:36:16;8.38;;;3.63;;
37409;SDS011;23275;48.914;12.566;2023-06-01T06:38:42;7.18;;;3.25;;
37409;SDS011;23275;48.914;12.566;2023-06-01T06:41:08;8.60;;;3.33;;
37409;SDS011;23275;48.914;12.566;2023-06-01T06:43:33;10.95;;;3.05;;
37409;SDS011;23275;48.914;12.566;2023-06-01T06:45:59;6.50;;;3.00;;
37409;SDS011;23275;48.914;12.566;2023-06-01T06:48:25;8.48;;;2.90;;
37409;SDS011;23275;48.914;12.566;2023-06-01T06:50:50;5.53;;;3.08;;
37409;SDS011;23275;48.914;12.566;2023-06-01T06:53:16;7.13;;;2.50;;
37409;SDS011;23275;48.914;12.566;2023-06-01T06:55:42;8.25;;;2.85;;
37409;SDS011;23275;48.914;12.566;2023-06-01T06:58:09;7.68;;;2.90;;
37409;SDS011;23275;48.914;12.566;2023-06-01T07:00:35;6.15;;;2.90;;
37409;SDS011;23275;48.914;12.566;2023-06-01T07:03:01;7.00;;;2.70;;
37409;SDS011;23275;48.914;12.566;2023-06-01T07:05:28;6.03;;;2.75;;
37409;SDS011;23275;48.914;12.566;2023-06-01T07:07:53;6.63;;;2.75;;
37409;SDS011;23275;48.914;12.566;2023-06-01T07:10:19;15.30;;;3.45;;
37409;SDS011;23275;48.914;12.566;2023-06-01T07:12:45;7.35;;;2.78;;
37409;SDS011;23275;48.914;12.566;2023-06-01T07:15:10;6.80;;;2.92;;
37409;SDS011;23275;48.914;12.566;2023-06-01T07:17:36;8.10;;;3.28;;
37409;SDS011;23275;48.914;12.566;2023-06-01T07:20:02;5.32;;;2.65;;
37409;SDS011;23275;48.914;12.566;2023-06-01T07:22:34;10.33;;;3.20;;
37409;SDS011;23275;48.914;12.566;2023-06-01T07:25:00;5.47;;;2.88;;
37409;SDS011;23275;48.914;12.566;2023-06-01T07:27:25;7.38;;;2.47;;
37409;SDS011;23275;48.914;12.566;2023-06-01T07:29:51;6.63;;;2.72;;
37409;SDS011;23275;48.914;12.566;2023-06-01T07:32:20;9.52;;;2.70;;
37409;SDS011;23275;48.914;12.566;2023-06-01T07:34:46;6.80;;;2.85;;
37409;SDS011;23275;48.914;12.566;2023-06-01T07:37:12;5.97;;;2.75;;
37409;SDS011;23275;48.914;12.566;2023-06-01T07:39:37;6.15;;;2.83;;
37409;SDS011;23275;48.914;12.566;2023-06-01T07:42:03;7.15;;;2.50;;
37409;SDS011;23275;48.914;12.566;2023-06-01T07:44:29;4.75;;;2.25;;
37409;SDS011;23275;48.914;12.566;2023-06-01T07:46:54;5.35;;;2.65;;
37409;SDS011;23275;48.914;12.566;2023-06-01T07:49:20;6.22;;;2.50;;
37409;SDS011;23275;48.914;12.566;2023-06-01T07:51:45;5.85;;;2.60;;
37409;SDS011;23275;48.914;12.566;2023-06-01T07:54:11;4.78;;;2.60;;
37409;SDS011;23275;48.914;12.566;2023-06-01T07:56:37;8.05;;;2.33;;
37409;SDS011;23275;48.914;12.566;2023-06-01T07:59:03;6.93;;;2.95;;
37409;SDS011;23275;48.914;12.566;2023-06-01T08:01:28;8.77;;;2.97;;
37409;SDS011;23275;48.914;12.566;2023-06-01T08:03:54;9.75;;;2.88;;
37409;SDS011;23275;48.914;12.566;2023-06-01T08:06:21;6.43;;;2.53;;
37409;SDS011;23275;48.914;12.566;2023-06-01T08:08:51;7.22;;;2.90;;
37409;SDS011;23275;48.914;12.566;2023-06-01T08:11:17;6.75;;;2.65;;
37409;SDS011;23275;48.914;12.566;2023-06-01T08:13:43;6.15;;;2.67;;
37409;SDS011;23275;48.914;12.566;2023-06-01T08:16:10;8.90;;;2.55;;
37409;SDS011;23275;48.914;12.566;2023-06-01T08:18:37;5.05;;;2.63;;
37409;SDS011;23275;48.914;12.566;2023-06-01T08:21:03;5.75;;;2.88;;
37409;SDS011;23275;48.914;12.566;2023-06-01T08:23:29;7.22;;;2.60;;
37409;SDS011;23275;48.914;12.566;2023-06-01T08:25:56;4.75;;;2.38;;
37409;SDS011;23275;48.914;12.566;2023-06-01T08:28:21;5.45;;;2.55;;
37409;SDS011;23275;48.914;12.566;2023-06-01T08:30:47;5.85;;;2.35;;
37409;SDS011;23275;48.914;12.566;2023-06-01T08:33:12;6.10;;;2.40;;
37409;SDS011;23275;48.914;12.566;2023-06-01T08:35:38;7.47;;;2.30;;
37409;SDS011;23275;48.914;12.566;2023-06-01T08:38:03;5.03;;;2.53;;
37409;SDS011;23275;48.914;12.566;2023-06-01T08:40:30;4.15;;;2.63;;
37409;SDS011;23275;48.914;12.566;2023-06-01T08:42:59;8.65;;;2.58;;
37409;SDS011;23275;48.914;12.566;2023-06-01T08:45:44;4.60;;;2.08;;
37409;SDS011;23275;48.914;12.566;2023-06-01T08:48:14;5.13;;;2.17;;
37409;SDS011;23275;48.914;12.566;2023-06-01T08:50:42;6.18;;;3.03;;
37409;SDS011;23275;48.914;12.566;2023-06-01T08:53:13;5.07;;;2.47;;
37409;SDS011;23275;48.914;12.566;2023-06-01T08:55:43;6.78;;;2.58;;
37409;SDS011;23275;48.914;12.566;2023-06-01T08:58:19;7.65;;;2.75;;
37409;SDS011;23275;48.914;12.566;2023-06-01T09:00:47;8.80;;;2.72;;
37409;SDS011;23275;48.914;12.566;2023-06-01T09:03:13;6.30;;;2.25;;
37409;SDS011;23275;48.914;12.566;2023-06-01T09:05:39;4.65;;;2.47;;
37409;SDS011;23275;48.914;12.566;2023-06-01T09:08:05;6.78;;;2.33;;
37409;SDS011;23275;48.914;12.566;2023-06-01T09:10:32;5.97;;;2.58;;
37409;SDS011;23275;48.914;12.566;2023-06-01T09:12:58;5.60;;;2.45;;
37409;SDS011;23275;48.914;12.566;2023-06-01T09:15:25;7.82;;;2.70;;
37409;SDS011;23275;48.914;12.566;2023-06-01T09:17:51;5.93;;;2.67;;
37409;SDS011;23275;48.914;12.566;2023-06-01T09:20:28;4.90;;;2.80;;
37409;SDS011;23275;48.914;12.566;2023-06-01T09:22:57;6.75;;;3.22;;
37409;SDS011;23275;48.914;12.566;2023-06-01T09:25:30;9.68;;;2.90;;
37409;SDS011;23275;48.914;12.566;2023-06-01T09:27:57;6.72;;;2.85;;
37409;SDS011;23275;48.914;12.566;2023-06-01T09:30:24;6.35;;;2.42;;
37409;SDS011;23275;48.914;12.566;2023-06-01T09:33:11;5.53;;;2.53;;
37409;SDS011;23275;48.914;12.566;2023-06-01T09:35:45;6.50;;;2.75;;
37409;SDS011;23275;48.914;12.566;2023-06-01T09:38:12;8.57;;;2.65;;
37409;SDS011;23275;48.914;12.566;2023-06-01T09:41:01;4.07;;;2.40;;
37409;SDS011;23275;48.914;12.566;2023-06-01T09:43:28;3.70;;;2.40;;
37409;SDS011;23275;48.914;12.566;2023-06-01T09:46:06;8.40;;;2.53;;
37409;SDS011;23275;48.914;12.566;2023-06-01T09:48:33;5.10;;;2.72;;
37409;SDS011;23275;48.914;12.566;2023-06-01T09:50:59;5.47;;;2.90;;
37409;SDS011;23275;48.914;12.566;2023-06-01T09:53:24;5.82;;;2.50;;
37409;SDS011;23275;48.914;12.566;2023-06-01T09:56:00;6.70;;;2.85;;
37409;SDS011;23275;48.914;12.566;2023-06-01T09:58:27;4.47;;;2.42;;
37409;SDS011;23275;48.914;12.566;2023-06-01T10:00:52;6.00;;;2.60;;
37409;SDS011;23275;48.914;12.566;2023-06-01T10:03:20;4.85;;;2.65;;
37409;SDS011;23275;48.914;12.566;2023-06-01T10:05:48;6.38;;;2.53;;
37409;SDS011;23275;48.914;12.566;2023-06-01T10:08:15;5.82;;;2.90;;
37409;SDS011;23275;48.914;12.566;2023-06-01T10:10:48;7.63;;;2.70;;
37409;SDS011;23275;48.914;12.566;2023-06-01T10:13:15;9.07;;;3.13;;
37409;SDS011;23275;48.914;12.566;2023-06-01T10:15:40;3.28;;;2.13;;
37409;SDS011;23275;48.914;12.566;2023-06-01T10:18:06;4.32;;;2.42;;
37409;SDS011;23275;48.914;12.566;2023-06-01T10:20:33;4.55;;;2.70;;
37409;SDS011;23275;48.914;12.566;2023-06-01T10:23:00;5.78;;;2.92;;
37409;SDS011;23275;48.914;12.566;2023-06-01T10:25:28;4.57;;;2.30;;
37409;SDS011;23275;48.914;12.566;2023-06-01T10:30:28;5.28;;;2.28;;
37409;SDS011;23275;48.914;12.566;2023-06-01T10:32:53;5.10;;;2.65;;
37409;SDS011;23275;48.914;12.566;2023-06-01T10:40:38;5.47;;;2.50;;
37409;SDS011;23275;48.914;12.566;2023-06-01T10:43:05;3.80;;;2.40;;
37409;SDS011;23275;48.914;12.566;2023-06-01T10:47:58;9.80;;;2.75;;
37409;SDS011;23275;48.914;12.566;2023-06-01T10:50:24;4.90;;;2.47;;
37409;SDS011;23275;48.914;12.566;2023-06-01T10:52:50;4.22;;;2.33;;
37409;SDS011;23275;48.914;12.566;2023-06-01T10:57:42;6.05;;;2.90;;
37409;SDS011;23275;48.914;12.566;2023-06-01T11:00:10;4.65;;;2.42;;
37409;SDS011;23275;48.914;12.566;2023-06-01T11:10:57;6.85;;;2.28;;
37409;SDS011;23275;48.914;12.566;2023-06-01T11:18:53;4.07;;;2.33;;
37409;SDS011;23275;48.914;12.566;2023-06-01T11:21:27;4.07;;;2.25;;
37409;SDS011;23275;48.914;12.566;2023-06-01T11:23:57;6.93;;;2.60;;
37409;SDS011;23275;48.914;12.566;2023-06-01T11:26:27;6.93;;;2.47;;
37409;SDS011;23275;48.914;12.566;2023-06-01T11:29:08;4.03;;;2.40;;
37409;SDS011;23275;48.914;12.566;2023-06-01T11:31:35;6.57;;;2.60;;
37409;SDS011;23275;48.914;12.566;2023-06-01T11:34:02;4.63;;;2.45;;
37409;SDS011;23275;48.914;12.566;2023-06-01T11:36:28;3.83;;;2.40;;
37409;SDS011;23275;48.914;12.566;2023-06-01T11:38:54;4.68;;;2.83;;
37409;SDS011;23275;48.914;12.566;2023-06-01T11:41:21;4.85;;;2.75;;
37409;SDS011;23275;48.914;12.566;2023-06-01T11:43:57;5.55;;;2.67;;
37409;SDS011;23275;48.914;12.566;2023-06-01T11:46:23;5.78;;;2.40;;
37409;SDS011;23275;48.914;12.566;2023-06-01T11:49:02;9.60;;;2.63;;
37409;SDS011;23275;48.914;12.566;2023-06-01T11:51:38;5.97;;;3.40;;
37409;SDS011;23275;48.914;12.566;2023-06-01T11:54:04;6.40;;;2.30;;
37409;SDS011;23275;48.914;12.566;2023-06-01T11:56:30;8.18;;;3.00;;
37409;SDS011;23275;48.914;12.566;2023-06-01T11:58:58;8.30;;;3.00;;
37409;SDS011;23275;48.914;12.566;2023-06-01T12:01:25;4.18;;;2.22;;
37409;SDS011;23275;48.914;12.566;2023-06-01T12:03:51;6.13;;;2.60;;
37409;SDS011;23275;48.914;12.566;2023-06-01T12:06:20;4.63;;;2.70;;
37409;SDS011;23275;48.914;12.566;2023-06-01T12:08:47;4.82;;;2.42;;
37409;SDS011;23275;48.914;12.566;2023-06-01T12:11:15;6.68;;;2.35;;
37409;SDS011;23275;48.914;12.566;2023-06-01T12:13:44;5.28;;;2.60;;
37409;SDS011;23275;48.914;12.566;2023-06-01T12:16:12;5.35;;;2.50;;
37409;SDS011;23275;48.914;12.566;2023-06-01T12:18:38;6.90;;;2.55;;
37409;SDS011;23275;48.914;12.566;2023-06-01T12:21:10;4.72;;;2.55;;
37409;SDS011;23275;48.914;12.566;2023-06-01T12:23:37;6.00;;;2.65;;
37409;SDS011;23275;48.914;12.566;2023-06-01T12:26:03;7.38;;;2.60;;
37409;SDS011;23275;48.914;12.566;2023-06-01T12:28:29;7.35;;;2.63;;
37409;SDS011;23275;48.914;12.566;2023-06-01T12:31:14;5.72;;;2.40;;
37409;SDS011;23275;48.914;12.566;2023-06-01T12:33:40;5.72;;;2.75;;
37409;SDS011;23275;48.914;12.566;2023-06-01T12:36:09;4.97;;;2.28;;
37409;SDS011;23275;48.914;12.566;2023-06-01T12:38:37;4.35;;;2.20;;
37409;SDS011;23275;48.914;12.566;2023-06-01T12:41:14;6.72;;;2.83;;
37409;SDS011;23275;48.914;12.566;2023-06-01T12:43:46;6.75;;;2.97;;
37409;SDS011;23275;48.914;12.566;2023-06-01T12:46:19;5.45;;;2.47;;
37409;SDS011;23275;48.914;12.566;2023-06-01T12:49:16;4.43;;;2.60;;
37409;SDS011;23275;48.914;12.566;2023-06-01T12:51:43;7.00;;;3.00;;
37409;SDS011;23275;48.914;12.566;2023-06-01T12:54:09;8.60;;;2.88;;
37409;SDS011;23275;48.914;12.566;2023-06-01T12:56:34;7.10;;;2.88;;
37409;SDS011;23275;48.914;12.566;2023-06-01T12:59:00;5.40;;;2.50;;
37409;SDS011;23275;48.914;12.566;2023-06-01T13:01:25;6.32;;;2.42;;
37409;SDS011;23275;48.914;12.566;2023-06-01T13:03:52;5.22;;;2.70;;
37409;SDS011;23275;48.914;12.566;2023-06-01T13:06:18;5.68;;;2.60;;
37409;SDS011;23275;48.914;12.566;2023-06-01T13:08:44;4.43;;;2.40;;
37409;SDS011;23275;48.914;12.566;2023-06-01T13:11:09;11.80;;;2.83;;
37409;SDS011;23275;48.914;12.566;2023-06-01T13:13:35;4.45;;;2.30;;
37409;SDS011;23275;48.914;12.566;2023-06-01T13:16:00;4.63;;;2.10;;
37409;SDS011;23275;48.914;12.566;2023-06-01T13:18:27;5.75;;;2.13;;
37409;SDS011;23275;48.914;12.566;2023-06-01T13:20:53;5.28;;;2.55;;
37409;SDS011;23275;48.914;12.566;2023-06-01T13:23:18;6.63;;;2.22;;
37409;SDS011;23275;48.914;12.566;2023-06-01T13:25:44;3.83;;;2.40;;
37409;SDS011;23275;48.914;12.566;2023-06-01T13:28:10;9.18;;;2.83;;
37409;SDS011;23275;48.914;12.566;2023-06-01T13:30:36;4.93;;;2.50;;
37409;SDS011;23275;48.914;12.566;2023-06-01T13:33:04;3.58;;;2.08;;
37409;SDS011;23275;48.914;12.566;2023-06-01T13:35:31;6.20;;;2.28;;
37409;SDS011;23275;48.914;12.566;2023-06-01T13:37:57;5.15;;;2.15;;
37409;SDS011;23275;48.914;12.566;2023-06-01T13:40:23;7.00;;;2.42;;
37409;SDS011;23275;48.914;12.566;2023-06-01T13:42:50;6.65;;;2.20;;
37409;SDS011;23275;48.914;12.566;2023-06-01T13:45:16;4.80;;;2.38;;
37409;SDS011;23275;48.914;12.566;2023-06-01T13:47:43;4.72;;;2.28;;
37409;SDS011;23275;48.914;12.566;2023-06-01T13:50:09;4.72;;;2.47;;
37409;SDS011;23275;48.914;12.566;2023-06-01T13:52:37;5.82;;;2.38;;
37409;SDS011;23275;48.914;12.566;2023-06-01T13:55:03;6.25;;;2.28;;
37409;SDS011;23275;48.914;12.566;2023-06-01T13:57:29;7.68;;;2.33;;
37409;SDS011;23275;48.914;12.566;2023-06-01T13:59:54;4.22;;;2.42;;
37409;SDS011;23275;48.914;12.566;2023-06-01T14:02:20;4.75;;;2.30;;
37409;SDS011;23275;48.914;12.566;2023-06-01T14:04:45;4.10;;;2.15;;
37409;SDS011;23275;48.914;12.566;2023-06-01T14:07:11;5.47;;;2.55;;
37409;SDS011;23275;48.914;12.566;2023-06-01T14:09:36;4.47;;;2.78;;
37409;SDS011;23275;48.914;12.566;2023-06-01T14:12:02;8.23;;;2.40;;
37409;SDS011;23275;48.914;12.566;2023-06-01T14:14:28;5.20;;;2.10;;
37409;SDS011;23275;48.914;12.566;2023-06-01T14:16:53;7.25;;;2.30;;
37409;SDS011;23275;48.914;12.566;2023-06-01T14:19:19;4.22;;;2.17;;
37409;SDS011;23275;48.914;12.566;2023-06-01T14:21:44;5.60;;;2.38;;
37409;SDS011;23275;48.914;12.566;2023-06-01T14:24:10;5.38;;;2.13;;
37409;SDS011;23275;48.914;12.566;2023-06-01T14:26:35;4.13;;;1.98;;
37409;SDS011;23275;48.914;12.566;2023-06-01T14:29:01;6.13;;;2.30;;
37409;SDS011;23275;48.914;12.566;2023-06-01T14:31:27;4.20;;;1.95;;
37409;SDS011;23275;48.914;12.566;2023-06-01T14:33:52;6.30;;;2.30;;
37409;SDS011;23275;48.914;12.566;2023-06-01T14:36:18;5.75;;;2.10;;
37409;SDS011;23275;48.914;12.566;2023-06-01T14:38:45;3.95;;;2.30;;
37409;SDS011;23275;48.914;12.566;2023-06-01T14:41:10;6.53;;;2.85;;
37409;SDS011;23275;48.914;12.566;2023-06-01T14:43:36;4.70;;;3.05;;
37409;SDS011;23275;48.914;12.566;2023-06-01T14:46:04;3.78;;;1.55;;
37409;SDS011;23275;48.914;12.566;2023-06-01T14:48:29;3.40;;;1.60;;
37409;SDS011;23275;48.914;12.566;2023-06-01T14:50:55;5.28;;;2.13;;
37409;SDS011;23275;48.914;12.566;2023-06-01T14:53:21;4.80;;;1.85;;
37409;SDS011;23275;48.914;12.566;2023-06-01T14:55:46;3.58;;;2.10;;
37409;SDS011;23275;48.914;12.566;2023-06-01T14:58:12;7.57;;;2.25;;
37409;SDS011;23275;48.914;12.566;2023-06-01T15:00:38;7.60;;;1.90;;
37409;SDS011;23275;48.914;12.566;2023-06-01T15:03:03;5.80;;;1.80;;
37409;SDS011;23275;48.914;12.566;2023-06-01T15:05:30;4.20;;;2.00;;
37409;SDS011;23275;48.914;12.566;2023-06-01T15:07:55;4.03;;;1.90;;
37409;SDS011;23275;48.914;12.566;2023-06-01T15:10:21;5.25;;;2.15;;